createdAt,value
2023-02-14T00:02:13.313Z,9.60
2023-02-14T00:07:15.872Z,9.30
2023-02-14T00:12:18.532Z,9.60
2023-02-14T00:17:21.170Z,9.40
2023-02-14T00:22:23.701Z,9.80
2023-02-14T00:27:26.439Z,9.70
2023-02-14T00:32:32.225Z,9.50
2023-02-14T00:37:35.252Z,9.70
2023-02-14T00:42:37.816Z,10.10
2023-02-14T00:47:40.434Z,9.50
2023-02-14T00:52:42.933Z,9.60
2023-02-14T00:57:45.440Z,9.20
2023-02-14T01:02:48.136Z,9.30
2023-02-14T01:07:50.701Z,9.60
2023-02-14T01:12:53.263Z,9.70
2023-02-14T01:17:55.804Z,10.10
2023-02-14T01:22:58.478Z,9.90
2023-02-14T01:28:00.997Z,10.00
2023-02-14T01:33:03.561Z,9.90
2023-02-14T01:38:06.023Z,10.10
2023-02-14T01:43:16.762Z,10.20
2023-02-14T01:48:22.357Z,9.40
2023-02-14T01:53:28.577Z,9.30
2023-02-14T01:58:36.579Z,9.50
2023-02-14T02:03:51.064Z,9.30
2023-02-14T02:09:07.280Z,9.10
2023-02-14T02:14:15.847Z,8.60
2023-02-14T02:19:33.126Z,8.10
2023-02-14T02:24:39.382Z,8.30
2023-02-14T02:30:31.112Z,8.50
2023-02-14T02:36:08.984Z,8.50
2023-02-14T02:41:41.898Z,8.10
2023-02-14T02:47:26.107Z,8.20
2023-02-14T02:52:49.521Z,8.40
2023-02-14T02:57:53.819Z,8.10
2023-02-14T03:03:16.573Z,7.60
2023-02-14T03:08:19.219Z,7.60
2023-02-14T03:13:49.783Z,7.40
2023-02-14T03:19:22.800Z,7.40
2023-02-14T03:24:28.391Z,6.80
2023-02-14T03:30:03.856Z,6.20
2023-02-14T03:35:12.624Z,5.90
2023-02-14T03:40:35.214Z,5.40
2023-02-14T03:45:44.289Z,5.60
2023-02-14T03:50:49.047Z,6.20
2023-02-14T03:56:10.631Z,7.10
2023-02-14T04:01:24.738Z,7.40
2023-02-14T04:06:27.402Z,7.30
2023-02-14T04:11:35.085Z,7.40
2023-02-14T04:16:57.633Z,7.70
2023-02-14T04:22:00.189Z,8.30
2023-02-14T04:27:10.344Z,8.40
2023-02-14T04:32:18.410Z,8.20
2023-02-14T04:37:21.132Z,8.10
2023-02-14T04:42:23.833Z,8.20
2023-02-14T04:47:26.455Z,8.10
2023-02-14T04:52:28.935Z,7.40
2023-02-14T04:57:31.783Z,7.30
2023-02-14T05:02:34.323Z,7.50
2023-02-14T05:07:37.105Z,7.70
2023-02-14T05:12:39.610Z,8.30
2023-02-14T05:17:42.048Z,7.60
2023-02-14T05:22:44.608Z,7.10
2023-02-14T05:27:47.062Z,7.40
2023-02-14T05:32:49.535Z,7.30
2023-02-14T05:37:52.040Z,7.40
2023-02-14T05:42:56.052Z,7.20
2023-02-14T05:47:58.494Z,6.50
2023-02-14T05:53:01.440Z,8.00
2023-02-14T05:58:04.092Z,8.10
2023-02-14T06:03:06.703Z,8.00
2023-02-14T06:08:09.251Z,7.90
2023-02-14T06:13:11.782Z,7.60
2023-02-14T06:18:14.416Z,7.50
2023-02-14T06:23:17.063Z,8.30
2023-02-14T06:28:19.651Z,7.70
2023-02-14T06:33:22.182Z,7.50
2023-02-14T06:38:24.626Z,7.60
2023-02-14T06:43:27.180Z,7.60
2023-02-14T06:48:30.223Z,7.30
2023-02-14T06:53:33.333Z,8.40
2023-02-14T06:58:36.058Z,8.10
2023-02-14T07:03:38.604Z,7.70
2023-02-14T07:08:42.351Z,8.40
2023-02-14T07:13:44.967Z,8.00
2023-02-14T07:18:47.464Z,7.80
2023-02-14T07:23:50.255Z,7.50
2023-02-14T07:28:53.052Z,7.50
2023-02-14T07:33:55.774Z,8.30
2023-02-14T07:38:58.446Z,7.80
2023-02-14T07:44:00.959Z,7.40
2023-02-14T07:49:03.530Z,8.20
2023-02-14T07:54:06.116Z,9.00
2023-02-14T07:59:08.722Z,9.40
2023-02-14T08:04:13.968Z,9.70
2023-02-14T08:09:24.724Z,9.50
2023-02-14T08:14:27.357Z,9.50
2023-02-14T08:19:30.239Z,9.30
2023-02-14T08:24:32.942Z,8.60
2023-02-14T08:29:35.682Z,8.20
2023-02-14T08:34:38.295Z,8.40
2023-02-14T08:39:40.734Z,8.70
2023-02-14T08:44:43.404Z,9.60
2023-02-14T08:49:45.850Z,8.30
2023-02-14T08:54:48.359Z,8.80
2023-02-14T08:59:50.851Z,8.60
2023-02-14T09:04:53.482Z,8.50
2023-02-14T09:09:56.075Z,8.10
2023-02-14T09:14:58.746Z,7.80
2023-02-14T09:20:02.010Z,9.00
2023-02-14T09:25:05.320Z,8.80
2023-02-14T09:30:10.834Z,9.10
2023-02-14T09:35:33.538Z,9.00
2023-02-14T09:40:36.211Z,8.90
2023-02-14T09:45:39.870Z,8.30
2023-02-14T09:50:54.088Z,8.50
2023-02-14T09:56:50.620Z,9.00
2023-02-14T10:02:30.198Z,9.30
2023-02-14T10:07:57.355Z,8.70
2023-02-14T10:13:06.628Z,9.10
2023-02-14T10:18:19.831Z,8.40
2023-02-14T10:23:25.438Z,8.20
2023-02-14T10:28:49.365Z,8.50
2023-02-14T10:34:08.641Z,8.40
2023-02-14T10:39:23.155Z,8.60
2023-02-14T10:44:50.348Z,9.40
2023-02-14T10:49:58.115Z,9.30
2023-02-14T10:55:31.589Z,9.20
2023-02-14T11:00:39.116Z,9.30
2023-02-14T11:05:48.967Z,8.90
2023-02-14T11:10:52.782Z,8.90
2023-02-14T11:16:00.373Z,8.40
2023-02-14T11:21:15.000Z,8.20
2023-02-14T11:26:30.125Z,8.70
2023-02-14T11:31:36.735Z,9.20
2023-02-14T11:36:42.546Z,9.40
2023-02-14T11:41:50.528Z,8.80
2023-02-14T11:46:55.914Z,7.80
2023-02-14T11:52:10.334Z,7.50
2023-02-14T11:57:24.518Z,7.30
2023-02-14T12:02:43.179Z,7.80
2023-02-14T12:07:47.714Z,8.30
2023-02-14T12:12:54.933Z,10.30
2023-02-14T12:18:11.375Z,11.00
2023-02-14T12:23:21.661Z,11.50
2023-02-14T12:28:31.531Z,11.40
2023-02-14T12:33:34.101Z,12.20
2023-02-14T12:39:15.895Z,12.60
2023-02-14T12:44:42.779Z,12.50
2023-02-14T12:50:18.852Z,13.40
2023-02-14T12:55:44.096Z,13.30
2023-02-14T13:01:28.281Z,12.90
2023-02-14T13:06:35.367Z,12.60
2023-02-14T13:11:53.144Z,10.10
2023-02-14T13:17:18.927Z,9.50
2023-02-14T13:22:25.923Z,10.20
2023-02-14T13:27:33.106Z,10.90
2023-02-14T13:32:40.781Z,11.20
2023-02-14T13:37:49.883Z,11.90
2023-02-14T13:43:00.355Z,12.10
2023-02-14T13:48:19.044Z,12.10
2023-02-14T13:53:42.142Z,11.40
2023-02-14T13:58:51.098Z,11.40
2023-02-14T14:03:56.954Z,11.30
2023-02-14T14:08:59.515Z,11.30
2023-02-14T14:14:30.359Z,11.80
2023-02-14T14:19:37.491Z,12.00
2023-02-14T14:25:02.123Z,12.10
2023-02-14T14:30:30.909Z,11.40
2023-02-14T14:35:33.574Z,11.50
2023-02-14T14:40:38.007Z,11.50
2023-02-14T14:45:41.929Z,11.00
2023-02-14T14:50:46.491Z,10.80
2023-02-14T14:55:52.197Z,11.30
2023-02-14T15:00:54.814Z,11.70
2023-02-14T15:06:16.412Z,11.10
2023-02-14T15:11:45.059Z,11.20
2023-02-14T15:16:50.254Z,11.70
2023-02-14T15:21:53.392Z,12.00
2023-02-14T15:26:56.920Z,11.40
2023-02-14T15:32:02.930Z,11.20
2023-02-14T15:37:07.057Z,10.70
2023-02-14T15:42:41.152Z,10.40
2023-02-14T15:47:46.420Z,9.70
2023-02-14T15:52:49.050Z,9.20
2023-02-14T15:57:59.915Z,9.00
2023-02-14T16:03:07.746Z,8.60
2023-02-14T16:08:37.861Z,8.50
2023-02-14T16:13:47.442Z,8.80
2023-02-14T16:18:53.032Z,8.60
2023-02-14T16:24:08.025Z,8.70
2023-02-14T16:29:15.043Z,9.30
2023-02-14T16:34:17.834Z,9.80
2023-02-14T16:39:24.904Z,10.00
2023-02-14T16:44:27.766Z,9.30
2023-02-14T16:49:30.327Z,7.20
2023-02-14T16:54:33.135Z,6.20
2023-02-14T16:59:36.086Z,5.60
2023-02-14T17:04:38.687Z,5.20
2023-02-14T17:09:46.823Z,4.70
2023-02-14T17:14:53.963Z,4.40
2023-02-14T17:19:57.815Z,4.50
2023-02-14T17:25:00.523Z,4.50
2023-02-14T17:30:04.049Z,4.40
2023-02-14T17:35:08.988Z,3.90
2023-02-14T17:40:12.767Z,3.50
2023-02-14T17:45:15.405Z,3.30
2023-02-14T17:50:18.318Z,3.10
2023-02-14T17:55:20.916Z,3.00
2023-02-14T18:00:24.418Z,3.10
2023-02-14T18:05:26.989Z,2.70
2023-02-14T18:10:29.486Z,2.40
2023-02-14T18:15:31.978Z,2.10
2023-02-14T18:20:34.471Z,2.00
2023-02-14T18:25:37.306Z,1.90
2023-02-14T18:30:39.870Z,1.90
2023-02-14T18:35:42.450Z,2.00
2023-02-14T18:40:45.183Z,1.80
2023-02-14T18:45:47.764Z,1.90
2023-02-14T18:50:52.482Z,2.00
2023-02-14T18:55:55.655Z,1.90
2023-02-14T19:00:58.184Z,1.60
2023-02-14T19:06:01.044Z,1.30
2023-02-14T19:11:04.848Z,1.10
2023-02-14T19:16:12.355Z,1.50
2023-02-14T19:21:17.205Z,1.40
2023-02-14T19:26:22.930Z,1.40
2023-02-14T19:31:26.975Z,1.30
2023-02-14T19:36:30.866Z,1.10
2023-02-14T19:41:34.975Z,1.00
2023-02-14T19:46:38.360Z,0.90
2023-02-14T19:51:41.487Z,1.00
2023-02-14T19:56:46.330Z,0.80
2023-02-14T20:01:53.420Z,0.50
2023-02-14T20:06:56.485Z,0.50
2023-02-14T20:11:59.191Z,0.70
2023-02-14T20:17:04.118Z,0.90
2023-02-14T20:22:08.321Z,0.40
2023-02-14T20:27:10.824Z,0.10
2023-02-14T20:32:16.046Z,0.00
2023-02-14T20:37:18.914Z,-0.10
2023-02-14T20:42:22.829Z,0.40
2023-02-14T20:47:25.426Z,0.60
2023-02-14T20:52:28.420Z,0.80
2023-02-14T20:57:30.971Z,0.60
2023-02-14T21:02:33.511Z,0.10
2023-02-14T21:07:36.004Z,-0.10
2023-02-14T21:12:38.704Z,-0.30
2023-02-14T21:17:41.235Z,-0.20
2023-02-14T21:22:43.781Z,-0.40
2023-02-14T21:27:47.693Z,-0.40
2023-02-14T21:32:50.391Z,-0.10
2023-02-14T21:37:52.940Z,-0.10
2023-02-14T21:42:55.475Z,0.30
2023-02-14T21:48:16.812Z,0.10
2023-02-14T21:53:19.919Z,-0.20
2023-02-14T21:58:22.406Z,-0.40
2023-02-14T22:03:25.231Z,-0.60
2023-02-14T22:08:27.952Z,-0.60
2023-02-14T22:13:30.750Z,-0.50
2023-02-14T22:18:33.614Z,-0.70
2023-02-14T22:23:37.260Z,-0.80
2023-02-14T22:28:40.411Z,-0.70
2023-02-14T22:33:43.357Z,-0.60
2023-02-14T22:38:45.957Z,-0.70
2023-02-14T22:43:48.886Z,-0.70
2023-02-14T22:48:52.938Z,-0.80
2023-02-14T22:54:01.183Z,-0.80
2023-02-14T22:59:06.171Z,-0.60
2023-02-14T23:04:08.851Z,-0.70
2023-02-14T23:09:12.611Z,-0.60
2023-02-14T23:14:35.136Z,-0.40
2023-02-14T23:19:56.754Z,-0.50
2023-02-14T23:25:01.494Z,-0.70
2023-02-14T23:30:06.493Z,-0.70
2023-02-14T23:35:09.330Z,-1.00
2023-02-14T23:40:12.173Z,-0.90
2023-02-14T23:45:33.314Z,-0.90
2023-02-14T23:50:35.964Z,-0.90
2023-02-14T23:55:38.617Z,-0.90
